Pagrindinis puslapis
METAR-TAF:

METAR-TAF

Oro uostai :

Sandane, Norvegija

platuma: 61-50N, ilguma: 006-07E, Aukštis: 6 m

Dabartinis oras

Ataskaita buvo paskelbta 1 valandą ir 43 minutes, ne 19:50 UTC
Vėjas 6 kt iš Pietų/Pietryčių
Temperatūra 0°C
Drėgmė 69%
Slėgis 996 hPa
Matomumas 10 km arba daugiau
nėra debesų žemiau 1500 m ir nėra kamuolinių lietaus debesų

METAR: ENSD 191950Z 15006KT CAVOK 00/M05 Q0996 RMK WIND 1138FT 09007KT

Laikas: 22:33 (21:33 UTC)


TAF: trūkstamas

Orai ataskaitas ir orų prognozės (METAR, TAF).

turimą stotys yra geltonos ir raudonos taškus žemėlapyje.

Perkelti pele per norėdami pamatyti stoties vardą.

Tada spustelėkite, norėdami matyti oro stebėjimo ir prognozės.

Norėdami pakeisti žemėlapį: spustelėkite ant žalios mygtukų su juodo kryžiaus žemyn,; žalią mygtuką su brūkšneliu, jei norite nutolinti; arba žalių rodyklių gretimoms žemėlapius.


METAR-TAF: